LTDA Airport Information

Runway Information
Runway 04 Length 9843 ft width 148 ft
Elevation 265 ft Threshold 0 ft Heading 42
Runway 22 Length 9843 ft Width 148 ft
Elevation 267 ft Threshold 0 ft Heading 222
Airport Frequencies
Airport Navaids
Airport Weather Information & NOTAM
ADDS - METARS form results

(1953 UTC 25 April 2019)
Data provider http://aviationweather.gov/metar/data/
 
Forecast for: LTDA (HATAY AIRPORT , TR)
Text: TAF LTDA 251640Z 2518/2603 23012KT 9999 SCT040
Forecast period: 1800 UTC 25 April 2019 to 0300 UTC 26 April 2019
Forecast type: FROM: standard forecast or significant change
Winds: from the SW (230 degrees) at 14 MPH (12 knots; 6.2 m/s)
Visibility: 6 or more miles 10+ km)
Ceiling: at least 12,000 feet AGL
Clouds: scattered clouds at 4000 feet AGL
Weather: no significant weather forecast for this period